Sitka, AK

7:28 PM AKDT on June 27, 2017 (GMT -0800)
Sitka Rocky Gutierrez | | Change Station

Elev 20 ft 57.05 °N, 135.36 °W | Updated 35 minutes ago

Overcast
Overcast
55 °F
Feels Like 55 °F
N
5
Wind Variable Wind from NNW

Today
High -- | Low -- °F
--% Chance of Precip.
Yesterday
High -- | Low -- °F
Precip. -- in
Pressure 30.20 in
Visibility 10.0 miles
Clouds Overcast 3600 ft
Dew Point 48 °F
Humidity 77%
Rainfall 0.01 in
Snow Depth Not available.
4:08 AM 9:59 PM
Waxing Crescent, 21% visible
METAR PASI 280253Z 33004KT 10SM OVC036 13/09 A3019 RMK AO2 SLP225 T01280089 58003
Pressure 30.20 in
Visibility 10.0 miles
Clouds Overcast 3600 ft
Dew Point 48 °F
Humidity 77%
Rainfall 0.01 in
Snow Depth Not available.
4:08 AM 9:59 PM
Waxing Crescent, 21% visible
METAR PASI 280253Z 33004KT 10SM OVC036 13/09 A3019 RMK AO2 SLP225 T01280089 58003

Get Severe Weather Alerts

Thanks for signing up!

Be on the lookout for a verification email in your inbox.

You'll start receiving the daily forecast at 6 AM.

×

10-Day Weather Forecast

Almanac

Astronomy

Jun. 27, 2017 Rise Set
Actual Time
Civil Twilight
Nautical Twilight
Astronomical Twilight
Moon
Length of Visible Light
Length of Day
Tomorrow will be .
, % of the Moon is Illuminated

Today's Extremes

State Highs State Lows

Community

WunderPhotos

Category 6

Welcome to Category 6. This is the collective home for Weather Underground's featured writeups by Dr. Jeff Masters (right), Bob Henson (left), Chris Burt, and other regular contributors.

Nearby

Air Quality

  Air Quality AQ Index Pollutant
Not available.

Snow Depth

Station Depth Elevation

Earthquake Activity

City Distance Mag. Time & Date
Minimum magnitude displayed is 2.5.

Coastal Water Temperatures

Place Temperature

Stations

Nearby Weather Stations

Station Location Temp. Windchill Dew Point Humidity Wind Precip. Elev Updated Type
                   

Watches & Warnings

There are currently no watches in effect.